sensor_id;sensor_type;location;lat;lon;timestamp;pressure;altitude;pressure_sealevel;temperature;humidity
17060;BME280;8646;49.716;9.266;2023-07-29T00:00:50;99729.75;;;18.74;100.00
17060;BME280;8646;49.716;9.266;2023-07-29T00:03:53;99725.66;;;18.68;100.00
17060;BME280;8646;49.716;9.266;2023-07-29T00:06:55;99732.78;;;18.71;100.00
17060;BME280;8646;49.716;9.266;2023-07-29T00:09:58;99733.69;;;18.60;100.00
17060;BME280;8646;49.716;9.266;2023-07-29T00:13:01;99736.66;;;18.57;100.00
17060;BME280;8646;49.716;9.266;2023-07-29T00:16:05;99735.03;;;18.55;100.00
17060;BME280;8646;49.716;9.266;2023-07-29T00:19:08;99718.34;;;18.58;100.00
17060;BME280;8646;49.716;9.266;2023-07-29T00:22:12;99721.59;;;18.63;100.00
17060;BME280;8646;49.716;9.266;2023-07-29T00:25:15;99720.59;;;18.85;100.00
17060;BME280;8646;49.716;9.266;2023-07-29T00:28:17;99723.56;;;18.93;100.00
17060;BME280;8646;49.716;9.266;2023-07-29T00:31:25;99722.44;;;18.95;100.00
17060;BME280;8646;49.716;9.266;2023-07-29T00:34:28;99722.81;;;18.91;100.00
17060;BME280;8646;49.716;9.266;2023-07-29T00:37:32;99714.25;;;18.63;100.00
17060;BME280;8646;49.716;9.266;2023-07-29T00:40:36;99713.66;;;18.81;100.00
17060;BME280;8646;49.716;9.266;2023-07-29T00:43:39;99707.03;;;18.51;100.00
17060;BME280;8646;49.716;9.266;2023-07-29T00:46:43;99713.84;;;18.68;100.00
17060;BME280;8646;49.716;9.266;2023-07-29T00:49:48;99712.09;;;18.67;100.00
17060;BME280;8646;49.716;9.266;2023-07-29T00:52:51;99709.81;;;18.40;100.00
17060;BME280;8646;49.716;9.266;2023-07-29T00:55:54;99704.47;;;18.39;100.00
17060;BME280;8646;49.716;9.266;2023-07-29T00:58:57;99713.63;;;18.60;100.00
17060;BME280;8646;49.716;9.266;2023-07-29T01:02:05;99710.63;;;18.63;100.00
17060;BME280;8646;49.716;9.266;2023-07-29T01:05:08;99709.13;;;18.59;100.00
17060;BME280;8646;49.716;9.266;2023-07-29T01:08:28;99696.28;;;18.71;100.00
17060;BME280;8646;49.716;9.266;2023-07-29T01:11:40;99691.78;;;18.70;100.00
17060;BME280;8646;49.716;9.266;2023-07-29T01:14:47;99683.81;;;18.66;100.00
17060;BME280;8646;49.716;9.266;2023-07-29T01:17:55;99683.94;;;18.65;100.00
17060;BME280;8646;49.716;9.266;2023-07-29T01:20:59;99675.38;;;18.58;100.00
17060;BME280;8646;49.716;9.266;2023-07-29T01:24:06;99681.63;;;18.60;100.00
17060;BME280;8646;49.716;9.266;2023-07-29T01:27:09;99687.56;;;18.65;100.00
17060;BME280;8646;49.716;9.266;2023-07-29T01:30:12;99678.88;;;18.60;100.00
17060;BME280;8646;49.716;9.266;2023-07-29T01:33:25;99683.59;;;18.58;100.00
17060;BME280;8646;49.716;9.266;2023-07-29T01:36:30;99686.09;;;18.61;100.00
17060;BME280;8646;49.716;9.266;2023-07-29T01:39:36;99671.13;;;18.65;100.00
17060;BME280;8646;49.716;9.266;2023-07-29T01:42:40;99674.59;;;18.67;100.00
17060;BME280;8646;49.716;9.266;2023-07-29T01:45:43;99666.25;;;18.69;100.00
17060;BME280;8646;49.716;9.266;2023-07-29T01:48:46;99657.81;;;18.61;100.00
17060;BME280;8646;49.716;9.266;2023-07-29T01:51:48;99672.41;;;18.61;100.00
17060;BME280;8646;49.716;9.266;2023-07-29T01:54:52;99664.94;;;18.52;100.00
17060;BME280;8646;49.716;9.266;2023-07-29T01:57:55;99655.34;;;18.58;100.00
17060;BME280;8646;49.716;9.266;2023-07-29T02:00:58;99656.47;;;18.55;100.00
17060;BME280;8646;49.716;9.266;2023-07-29T02:04:01;99655.09;;;18.61;100.00
17060;BME280;8646;49.716;9.266;2023-07-29T02:07:04;99645.13;;;18.60;100.00
17060;BME280;8646;49.716;9.266;2023-07-29T02:10:09;99644.88;;;18.63;100.00
17060;BME280;8646;49.716;9.266;2023-07-29T02:13:12;99634.63;;;18.65;100.00
17060;BME280;8646;49.716;9.266;2023-07-29T02:16:15;99634.81;;;18.73;100.00
17060;BME280;8646;49.716;9.266;2023-07-29T02:19:17;99633.78;;;18.64;100.00
17060;BME280;8646;49.716;9.266;2023-07-29T02:22:20;99644.25;;;18.59;100.00
17060;BME280;8646;49.716;9.266;2023-07-29T02:25:35;99642.25;;;18.61;100.00
17060;BME280;8646;49.716;9.266;2023-07-29T02:28:38;99644.25;;;18.59;100.00
17060;BME280;8646;49.716;9.266;2023-07-29T02:31:40;99653.72;;;18.55;100.00
17060;BME280;8646;49.716;9.266;2023-07-29T02:34:43;99650.28;;;18.42;100.00
17060;BME280;8646;49.716;9.266;2023-07-29T02:37:46;99640.97;;;18.34;100.00
17060;BME280;8646;49.716;9.266;2023-07-29T02:40:50;99651.00;;;18.23;100.00
17060;BME280;8646;49.716;9.266;2023-07-29T02:43:52;99653.09;;;18.20;100.00
17060;BME280;8646;49.716;9.266;2023-07-29T02:46:55;99631.44;;;18.17;100.00
17060;BME280;8646;49.716;9.266;2023-07-29T02:49:58;99638.75;;;17.96;100.00
17060;BME280;8646;49.716;9.266;2023-07-29T02:53:01;99628.91;;;18.04;100.00
17060;BME280;8646;49.716;9.266;2023-07-29T02:56:06;99636.25;;;18.04;100.00
17060;BME280;8646;49.716;9.266;2023-07-29T02:59:11;99624.19;;;17.95;100.00
17060;BME280;8646;49.716;9.266;2023-07-29T03:02:13;99617.38;;;17.78;100.00
17060;BME280;8646;49.716;9.266;2023-07-29T03:05:17;99629.72;;;17.73;100.00
17060;BME280;8646;49.716;9.266;2023-07-29T03:08:20;99631.84;;;17.69;100.00
17060;BME280;8646;49.716;9.266;2023-07-29T03:11:31;99627.97;;;17.83;100.00
17060;BME280;8646;49.716;9.266;2023-07-29T03:14:34;99630.31;;;17.87;100.00
17060;BME280;8646;49.716;9.266;2023-07-29T03:17:37;99628.66;;;17.96;100.00
17060;BME280;8646;49.716;9.266;2023-07-29T03:20:40;99629.78;;;17.93;100.00
17060;BME280;8646;49.716;9.266;2023-07-29T03:23:43;99617.38;;;17.89;100.00
17060;BME280;8646;49.716;9.266;2023-07-29T03:26:47;99611.91;;;17.89;100.00
17060;BME280;8646;49.716;9.266;2023-07-29T03:29:49;99621.00;;;17.79;100.00
17060;BME280;8646;49.716;9.266;2023-07-29T03:32:52;99620.13;;;17.78;100.00
17060;BME280;8646;49.716;9.266;2023-07-29T03:35:55;99602.59;;;17.81;100.00
17060;BME280;8646;49.716;9.266;2023-07-29T03:38:58;99614.41;;;17.81;100.00
17060;BME280;8646;49.716;9.266;2023-07-29T03:56:46;99574.38;;;17.69;100.00
17060;BME280;8646;49.716;9.266;2023-07-29T03:59:49;99546.56;;;17.42;100.00
17060;BME280;8646;49.716;9.266;2023-07-29T04:02:51;99578.63;;;17.62;100.00
17060;BME280;8646;49.716;9.266;2023-07-29T04:05:55;99570.13;;;17.76;100.00
17060;BME280;8646;49.716;9.266;2023-07-29T04:08:58;99552.03;;;17.42;100.00
17060;BME280;8646;49.716;9.266;2023-07-29T04:12:03;99582.31;;;17.61;100.00
17060;BME280;8646;49.716;9.266;2023-07-29T04:15:07;99584.09;;;17.73;100.00
17060;BME280;8646;49.716;9.266;2023-07-29T04:18:10;99578.84;;;17.70;100.00
17060;BME280;8646;49.716;9.266;2023-07-29T04:21:13;99582.47;;;17.71;100.00
17060;BME280;8646;49.716;9.266;2023-07-29T04:24:16;99574.50;;;17.68;100.00
17060;BME280;8646;49.716;9.266;2023-07-29T04:27:20;99562.19;;;17.73;100.00
17060;BME280;8646;49.716;9.266;2023-07-29T04:30:22;99552.38;;;17.71;100.00
17060;BME280;8646;49.716;9.266;2023-07-29T04:33:25;99553.22;;;17.71;100.00
17060;BME280;8646;49.716;9.266;2023-07-29T04:36:30;99563.16;;;17.61;100.00
17060;BME280;8646;49.716;9.266;2023-07-29T04:39:33;99573.72;;;17.77;100.00
17060;BME280;8646;49.716;9.266;2023-07-29T04:42:37;99588.69;;;17.73;100.00
17060;BME280;8646;49.716;9.266;2023-07-29T04:45:42;99581.47;;;17.72;100.00
17060;BME280;8646;49.716;9.266;2023-07-29T04:48:45;99570.88;;;17.78;100.00
17060;BME280;8646;49.716;9.266;2023-07-29T04:51:48;99561.91;;;18.08;100.00
17060;BME280;8646;49.716;9.266;2023-07-29T04:54:51;99558.72;;;18.03;100.00
17060;BME280;8646;49.716;9.266;2023-07-29T04:57:55;99562.97;;;17.96;100.00
17060;BME280;8646;49.716;9.266;2023-07-29T05:00:57;99570.31;;;17.96;100.00
17060;BME280;8646;49.716;9.266;2023-07-29T05:04:01;99570.09;;;17.87;100.00
17060;BME280;8646;49.716;9.266;2023-07-29T05:07:04;99583.38;;;17.92;100.00
17060;BME280;8646;49.716;9.266;2023-07-29T05:10:08;99592.09;;;17.97;100.00
17060;BME280;8646;49.716;9.266;2023-07-29T05:13:12;99589.56;;;18.05;100.00
17060;BME280;8646;49.716;9.266;2023-07-29T05:16:15;99581.72;;;18.01;100.00
17060;BME280;8646;49.716;9.266;2023-07-29T05:19:18;99575.47;;;18.10;100.00
17060;BME280;8646;49.716;9.266;2023-07-29T05:22:20;99584.53;;;18.21;100.00
17060;BME280;8646;49.716;9.266;2023-07-29T05:25:23;99588.72;;;18.25;100.00
17060;BME280;8646;49.716;9.266;2023-07-29T05:28:27;99583.13;;;18.27;100.00
17060;BME280;8646;49.716;9.266;2023-07-29T05:31:30;99589.22;;;18.30;100.00
17060;BME280;8646;49.716;9.266;2023-07-29T05:34:33;99598.09;;;18.23;100.00
17060;BME280;8646;49.716;9.266;2023-07-29T05:37:38;99607.78;;;18.27;100.00
17060;BME280;8646;49.716;9.266;2023-07-29T05:40:41;99609.91;;;18.23;100.00
17060;BME280;8646;49.716;9.266;2023-07-29T05:43:45;99606.16;;;18.24;100.00
17060;BME280;8646;49.716;9.266;2023-07-29T05:46:50;99617.03;;;18.15;100.00
17060;BME280;8646;49.716;9.266;2023-07-29T05:49:53;99618.03;;;18.14;100.00
17060;BME280;8646;49.716;9.266;2023-07-29T05:52:56;99619.25;;;18.21;100.00
17060;BME280;8646;49.716;9.266;2023-07-29T05:55:58;99616.50;;;18.21;100.00
17060;BME280;8646;49.716;9.266;2023-07-29T05:59:02;99591.41;;;18.37;100.00
17060;BME280;8646;49.716;9.266;2023-07-29T06:02:06;99606.84;;;18.38;100.00
17060;BME280;8646;49.716;9.266;2023-07-29T06:05:08;99598.84;;;18.46;100.00
17060;BME280;8646;49.716;9.266;2023-07-29T06:08:11;99613.00;;;18.30;100.00
17060;BME280;8646;49.716;9.266;2023-07-29T06:11:14;99594.47;;;18.22;100.00
17060;BME280;8646;49.716;9.266;2023-07-29T06:14:18;99584.13;;;18.26;100.00
17060;BME280;8646;49.716;9.266;2023-07-29T06:17:21;99602.28;;;18.27;100.00
17060;BME280;8646;49.716;9.266;2023-07-29T06:20:24;99594.78;;;18.40;100.00
17060;BME280;8646;49.716;9.266;2023-07-29T06:23:27;99592.75;;;18.42;100.00
17060;BME280;8646;49.716;9.266;2023-07-29T06:26:29;99604.25;;;18.36;100.00
17060;BME280;8646;49.716;9.266;2023-07-29T06:29:34;99581.53;;;18.45;100.00
17060;BME280;8646;49.716;9.266;2023-07-29T06:32:36;99578.13;;;18.53;100.00
17060;BME280;8646;49.716;9.266;2023-07-29T06:35:39;99587.97;;;18.55;100.00
17060;BME280;8646;49.716;9.266;2023-07-29T06:38:43;99599.06;;;18.54;100.00
17060;BME280;8646;49.716;9.266;2023-07-29T06:41:46;99603.19;;;18.48;100.00
17060;BME280;8646;49.716;9.266;2023-07-29T06:44:50;99611.13;;;18.51;100.00
17060;BME280;8646;49.716;9.266;2023-07-29T06:47:53;99604.41;;;18.55;100.00
17060;BME280;8646;49.716;9.266;2023-07-29T06:50:56;99586.66;;;18.71;100.00
17060;BME280;8646;49.716;9.266;2023-07-29T06:54:06;99592.47;;;18.77;100.00
17060;BME280;8646;49.716;9.266;2023-07-29T06:57:09;99591.31;;;18.80;100.00
17060;BME280;8646;49.716;9.266;2023-07-29T07:00:13;99580.75;;;18.96;100.00
17060;BME280;8646;49.716;9.266;2023-07-29T07:03:16;99587.31;;;19.14;100.00
17060;BME280;8646;49.716;9.266;2023-07-29T07:06:19;99586.09;;;19.28;100.00
17060;BME280;8646;49.716;9.266;2023-07-29T07:09:26;99584.38;;;19.36;100.00
17060;BME280;8646;49.716;9.266;2023-07-29T07:12:29;99577.25;;;19.64;100.00
17060;BME280;8646;49.716;9.266;2023-07-29T07:15:33;99575.28;;;19.95;100.00
17060;BME280;8646;49.716;9.266;2023-07-29T07:18:35;99572.28;;;20.17;100.00
17060;BME280;8646;49.716;9.266;2023-07-29T07:21:38;99575.34;;;20.34;100.00
17060;BME280;8646;49.716;9.266;2023-07-29T07:24:42;99573.44;;;20.44;100.00
17060;BME280;8646;49.716;9.266;2023-07-29T07:27:44;99565.50;;;20.50;100.00
17060;BME280;8646;49.716;9.266;2023-07-29T07:30:48;99570.69;;;20.53;100.00
17060;BME280;8646;49.716;9.266;2023-07-29T07:33:51;99590.06;;;20.52;100.00
17060;BME280;8646;49.716;9.266;2023-07-29T07:36:54;99599.03;;;20.54;100.00
17060;BME280;8646;49.716;9.266;2023-07-29T07:39:57;99591.78;;;20.72;100.00
17060;BME280;8646;49.716;9.266;2023-07-29T07:43:00;99594.34;;;20.93;100.00
17060;BME280;8646;49.716;9.266;2023-07-29T07:46:05;99586.16;;;21.30;100.00
17060;BME280;8646;49.716;9.266;2023-07-29T07:49:07;99611.31;;;21.35;100.00
17060;BME280;8646;49.716;9.266;2023-07-29T07:52:10;99671.88;;;21.25;100.00
17060;BME280;8646;49.716;9.266;2023-07-29T07:55:13;99711.00;;;20.52;100.00
17060;BME280;8646;49.716;9.266;2023-07-29T07:58:16;99675.03;;;19.56;100.00
17060;BME280;8646;49.716;9.266;2023-07-29T08:01:20;99670.56;;;19.34;100.00
17060;BME280;8646;49.716;9.266;2023-07-29T08:04:23;99662.28;;;19.24;100.00
17060;BME280;8646;49.716;9.266;2023-07-29T08:07:28;99664.63;;;19.29;100.00
17060;BME280;8646;49.716;9.266;2023-07-29T08:10:36;99656.53;;;19.27;100.00
17060;BME280;8646;49.716;9.266;2023-07-29T08:13:39;99644.44;;;19.09;100.00
17060;BME280;8646;49.716;9.266;2023-07-29T08:16:43;99650.38;;;19.14;100.00
17060;BME280;8646;49.716;9.266;2023-07-29T08:19:45;99679.91;;;19.01;100.00
17060;BME280;8646;49.716;9.266;2023-07-29T08:22:48;99669.94;;;19.00;100.00
17060;BME280;8646;49.716;9.266;2023-07-29T08:25:52;99674.63;;;18.88;100.00
17060;BME280;8646;49.716;9.266;2023-07-29T08:28:56;99673.59;;;18.68;100.00
17060;BME280;8646;49.716;9.266;2023-07-29T08:32:00;99665.47;;;18.46;100.00
17060;BME280;8646;49.716;9.266;2023-07-29T08:35:04;99665.47;;;18.46;100.00
17060;BME280;8646;49.716;9.266;2023-07-29T08:38:10;99684.81;;;18.65;100.00
17060;BME280;8646;49.716;9.266;2023-07-29T08:41:19;99681.75;;;18.59;100.00
17060;BME280;8646;49.716;9.266;2023-07-29T08:44:25;99672.41;;;18.61;100.00
17060;BME280;8646;49.716;9.266;2023-07-29T08:47:30;99652.22;;;18.83;100.00
17060;BME280;8646;49.716;9.266;2023-07-29T08:50:35;99638.69;;;19.12;100.00
17060;BME280;8646;49.716;9.266;2023-07-29T08:53:39;99640.81;;;19.60;100.00
17060;BME280;8646;49.716;9.266;2023-07-29T08:56:43;99638.06;;;20.09;100.00
17060;BME280;8646;49.716;9.266;2023-07-29T08:59:46;99641.84;;;20.37;100.00
17060;BME280;8646;49.716;9.266;2023-07-29T09:02:50;99634.91;;;20.72;100.00
17060;BME280;8646;49.716;9.266;2023-07-29T09:05:54;99637.47;;;20.92;100.00
17060;BME280;8646;49.716;9.266;2023-07-29T09:08:58;99631.78;;;21.13;100.00
17060;BME280;8646;49.716;9.266;2023-07-29T09:12:01;99623.56;;;21.23;100.00
17060;BME280;8646;49.716;9.266;2023-07-29T09:15:05;99615.44;;;21.12;100.00
17060;BME280;8646;49.716;9.266;2023-07-29T09:18:15;99619.34;;;21.09;100.00
17060;BME280;8646;49.716;9.266;2023-07-29T09:21:22;99626.16;;;21.15;100.00
17060;BME280;8646;49.716;9.266;2023-07-29T09:24:26;99629.56;;;21.36;100.00
17060;BME280;8646;49.716;9.266;2023-07-29T09:27:31;99624.94;;;21.37;100.00
17060;BME280;8646;49.716;9.266;2023-07-29T09:30:34;99625.22;;;21.33;100.00
17060;BME280;8646;49.716;9.266;2023-07-29T09:33:38;99629.56;;;21.36;100.00
17060;BME280;8646;49.716;9.266;2023-07-29T09:36:41;99620.53;;;21.53;100.00
17060;BME280;8646;49.716;9.266;2023-07-29T09:39:45;99620.53;;;21.81;100.00
17060;BME280;8646;49.716;9.266;2023-07-29T09:42:49;99627.25;;;21.96;100.00
17060;BME280;8646;49.716;9.266;2023-07-29T09:45:52;99619.56;;;21.99;100.00
17060;BME280;8646;49.716;9.266;2023-07-29T09:48:57;99620.31;;;21.92;100.00
17060;BME280;8646;49.716;9.266;2023-07-29T09:51:59;99620.88;;;21.95;100.00
17060;BME280;8646;49.716;9.266;2023-07-29T09:55:04;99616.66;;;22.01;100.00
17060;BME280;8646;49.716;9.266;2023-07-29T09:58:07;99601.25;;;21.81;100.00
17060;BME280;8646;49.716;9.266;2023-07-29T10:01:10;99604.50;;;21.66;100.00
17060;BME280;8646;49.716;9.266;2023-07-29T10:04:14;99592.69;;;21.56;100.00
17060;BME280;8646;49.716;9.266;2023-07-29T10:07:18;99595.28;;;21.58;100.00
17060;BME280;8646;49.716;9.266;2023-07-29T10:10:21;99596.50;;;21.73;100.00
17060;BME280;8646;49.716;9.266;2023-07-29T10:13:25;99597.69;;;21.98;100.00
17060;BME280;8646;49.716;9.266;2023-07-29T10:16:29;99591.03;;;22.36;100.00
17060;BME280;8646;49.716;9.266;2023-07-29T10:19:34;99590.97;;;22.71;100.00
17060;BME280;8646;49.716;9.266;2023-07-29T10:22:39;99586.56;;;22.78;100.00
17060;BME280;8646;49.716;9.266;2023-07-29T10:25:46;99594.91;;;22.87;100.00
17060;BME280;8646;49.716;9.266;2023-07-29T10:28:52;99591.47;;;22.85;100.00
17060;BME280;8646;49.716;9.266;2023-07-29T10:31:57;99581.28;;;22.85;100.00
17060;BME280;8646;49.716;9.266;2023-07-29T10:35:06;99571.88;;;22.96;100.00
17060;BME280;8646;49.716;9.266;2023-07-29T10:38:09;99577.69;;;23.10;100.00
17060;BME280;8646;49.716;9.266;2023-07-29T10:41:12;99563.56;;;23.21;100.00
17060;BME280;8646;49.716;9.266;2023-07-29T10:44:45;99576.25;;;23.32;100.00
17060;BME280;8646;49.716;9.266;2023-07-29T10:47:50;99571.06;;;23.37;100.00
17060;BME280;8646;49.716;9.266;2023-07-29T10:51:24;99574.34;;;23.58;100.00
17060;BME280;8646;49.716;9.266;2023-07-29T10:54:27;99568.72;;;23.92;100.00
17060;BME280;8646;49.716;9.266;2023-07-29T10:57:33;99577.63;;;24.20;100.00
17060;BME280;8646;49.716;9.266;2023-07-29T11:00:36;99561.22;;;24.35;100.00
17060;BME280;8646;49.716;9.266;2023-07-29T11:03:39;99560.53;;;24.49;98.19
17060;BME280;8646;49.716;9.266;2023-07-29T11:07:02;99566.78;;;24.59;95.94
17060;BME280;8646;49.716;9.266;2023-07-29T11:10:24;99562.09;;;24.60;95.50
17060;BME280;8646;49.716;9.266;2023-07-29T11:13:27;99550.16;;;24.67;93.58
17060;BME280;8646;49.716;9.266;2023-07-29T11:16:30;99559.84;;;24.80;90.86
17060;BME280;8646;49.716;9.266;2023-07-29T11:19:34;99548.28;;;24.92;91.13
17060;BME280;8646;49.716;9.266;2023-07-29T11:22:39;99540.09;;;25.07;85.63
17060;BME280;8646;49.716;9.266;2023-07-29T11:25:42;99533.22;;;24.87;81.21
17060;BME280;8646;49.716;9.266;2023-07-29T11:28:46;99530.81;;;24.59;83.06
17060;BME280;8646;49.716;9.266;2023-07-29T11:31:50;99537.38;;;24.26;82.88
17060;BME280;8646;49.716;9.266;2023-07-29T11:34:55;99550.25;;;23.93;86.60
17060;BME280;8646;49.716;9.266;2023-07-29T11:37:59;99551.75;;;23.71;88.56
17060;BME280;8646;49.716;9.266;2023-07-29T11:41:02;99541.84;;;23.52;88.25
17060;BME280;8646;49.716;9.266;2023-07-29T11:44:09;99551.09;;;23.43;87.74
17060;BME280;8646;49.716;9.266;2023-07-29T11:47:13;99549.84;;;23.38;88.59
17060;BME280;8646;49.716;9.266;2023-07-29T11:50:15;99542.28;;;23.40;88.28
17060;BME280;8646;49.716;9.266;2023-07-29T11:53:20;99537.94;;;23.37;88.47
17060;BME280;8646;49.716;9.266;2023-07-29T11:56:22;99537.91;;;23.29;88.12
17060;BME280;8646;49.716;9.266;2023-07-29T11:59:27;99540.00;;;23.35;88.59
17060;BME280;8646;49.716;9.266;2023-07-29T12:02:30;99532.31;;;23.47;89.02
17060;BME280;8646;49.716;9.266;2023-07-29T12:05:34;99537.53;;;23.50;89.57
17060;BME280;8646;49.716;9.266;2023-07-29T12:08:38;99540.97;;;23.52;91.22
17060;BME280;8646;49.716;9.266;2023-07-29T12:11:41;99543.94;;;23.58;91.59
17060;BME280;8646;49.716;9.266;2023-07-29T12:14:45;99543.75;;;23.60;91.50
17060;BME280;8646;49.716;9.266;2023-07-29T12:17:48;99535.88;;;23.73;90.61
17060;BME280;8646;49.716;9.266;2023-07-29T12:20:51;99540.94;;;24.02;90.73
17060;BME280;8646;49.716;9.266;2023-07-29T12:23:56;99535.66;;;24.41;90.91
17060;BME280;8646;49.716;9.266;2023-07-29T12:27:01;99526.66;;;24.71;88.80
17060;BME280;8646;49.716;9.266;2023-07-29T12:30:05;99540.47;;;25.04;86.85
17060;BME280;8646;49.716;9.266;2023-07-29T12:33:08;99531.72;;;25.31;84.79
17060;BME280;8646;49.716;9.266;2023-07-29T12:36:11;99528.34;;;25.60;84.91
17060;BME280;8646;49.716;9.266;2023-07-29T12:39:23;99515.63;;;25.74;84.49
17060;BME280;8646;49.716;9.266;2023-07-29T12:42:25;99521.25;;;25.89;85.12
17060;BME280;8646;49.716;9.266;2023-07-29T12:45:35;99516.41;;;25.91;82.27
17060;BME280;8646;49.716;9.266;2023-07-29T12:48:41;99512.94;;;25.89;82.17
17060;BME280;8646;49.716;9.266;2023-07-29T12:51:44;99513.00;;;25.80;81.29
17060;BME280;8646;49.716;9.266;2023-07-29T12:54:48;99511.78;;;25.83;81.88
17060;BME280;8646;49.716;9.266;2023-07-29T12:57:51;99499.75;;;25.68;79.60
17060;BME280;8646;49.716;9.266;2023-07-29T13:00:53;99509.50;;;25.47;80.79
17060;BME280;8646;49.716;9.266;2023-07-29T13:03:57;99512.69;;;25.36;82.13
17060;BME280;8646;49.716;9.266;2023-07-29T13:06:59;99513.06;;;25.25;83.11
17060;BME280;8646;49.716;9.266;2023-07-29T13:10:04;99509.94;;;25.28;83.94
17060;BME280;8646;49.716;9.266;2023-07-29T13:13:07;99500.78;;;25.28;84.55
17060;BME280;8646;49.716;9.266;2023-07-29T13:16:10;99508.09;;;25.52;84.43
17060;BME280;8646;49.716;9.266;2023-07-29T13:19:13;99504.50;;;25.82;83.92
17060;BME280;8646;49.716;9.266;2023-07-29T13:22:15;99504.34;;;26.06;84.24
17060;BME280;8646;49.716;9.266;2023-07-29T13:25:20;99499.03;;;26.19;84.17
17060;BME280;8646;49.716;9.266;2023-07-29T13:28:22;99495.91;;;26.22;83.88
17060;BME280;8646;49.716;9.266;2023-07-29T13:31:25;99496.16;;;26.36;82.96
17060;BME280;8646;49.716;9.266;2023-07-29T13:34:28;99492.28;;;26.45;81.93
17060;BME280;8646;49.716;9.266;2023-07-29T13:37:34;99492.88;;;26.55;81.43
17060;BME280;8646;49.716;9.266;2023-07-29T13:40:38;99500.38;;;26.69;81.50
17060;BME280;8646;49.716;9.266;2023-07-29T13:43:40;99495.41;;;26.79;80.38
17060;BME280;8646;49.716;9.266;2023-07-29T13:46:43;99495.00;;;26.90;78.84
17060;BME280;8646;49.716;9.266;2023-07-29T13:49:46;99489.34;;;26.99;77.73
17060;BME280;8646;49.716;9.266;2023-07-29T13:52:49;99470.38;;;27.17;78.53
17060;BME280;8646;49.716;9.266;2023-07-29T13:55:53;99480.81;;;27.29;78.23
17060;BME280;8646;49.716;9.266;2023-07-29T13:58:56;99484.28;;;27.31;77.67
17060;BME280;8646;49.716;9.266;2023-07-29T14:01:58;99483.75;;;27.43;78.21
17060;BME280;8646;49.716;9.266;2023-07-29T14:05:03;99484.22;;;27.76;77.09
17060;BME280;8646;49.716;9.266;2023-07-29T14:08:06;99469.13;;;27.85;74.69
17060;BME280;8646;49.716;9.266;2023-07-29T14:11:10;99477.75;;;27.90;72.67
17060;BME280;8646;49.716;9.266;2023-07-29T14:14:14;99481.84;;;27.73;72.33
17060;BME280;8646;49.716;9.266;2023-07-29T14:17:18;99475.53;;;27.64;70.09
17060;BME280;8646;49.716;9.266;2023-07-29T14:20:21;99470.06;;;27.41;62.80
17060;BME280;8646;49.716;9.266;2023-07-29T14:23:24;99471.72;;;27.21;58.80
17060;BME280;8646;49.716;9.266;2023-07-29T14:26:28;99470.59;;;27.15;58.42
17060;BME280;8646;49.716;9.266;2023-07-29T14:29:31;99479.09;;;27.14;58.70
17060;BME280;8646;49.716;9.266;2023-07-29T14:32:33;99478.72;;;27.02;60.51
17060;BME280;8646;49.716;9.266;2023-07-29T14:35:36;99489.44;;;27.05;59.77
17060;BME280;8646;49.716;9.266;2023-07-29T14:38:39;99491.25;;;27.13;58.79
17060;BME280;8646;49.716;9.266;2023-07-29T14:41:43;99490.03;;;27.15;55.52
17060;BME280;8646;49.716;9.266;2023-07-29T14:44:46;99485.13;;;27.17;52.72
17060;BME280;8646;49.716;9.266;2023-07-29T14:47:48;99477.75;;;27.24;53.11
17060;BME280;8646;49.716;9.266;2023-07-29T14:50:51;99483.19;;;27.47;50.24
17060;BME280;8646;49.716;9.266;2023-07-29T14:53:54;99482.06;;;27.56;48.44
17060;BME280;8646;49.716;9.266;2023-07-29T14:56:58;99469.94;;;27.49;48.27
17060;BME280;8646;49.716;9.266;2023-07-29T15:00:01;99470.16;;;27.33;49.72
17060;BME280;8646;49.716;9.266;2023-07-29T15:03:05;99474.59;;;27.13;50.11
17060;BME280;8646;49.716;9.266;2023-07-29T15:06:09;99480.84;;;27.15;50.19
17060;BME280;8646;49.716;9.266;2023-07-29T15:09:12;99471.81;;;27.27;50.36
17060;BME280;8646;49.716;9.266;2023-07-29T15:12:16;99480.41;;;27.32;50.65
17060;BME280;8646;49.716;9.266;2023-07-29T15:15:19;99472.34;;;27.52;51.48
17060;BME280;8646;49.716;9.266;2023-07-29T15:18:22;99479.91;;;27.73;51.88
17060;BME280;8646;49.716;9.266;2023-07-29T15:21:25;99476.66;;;27.69;51.32
17060;BME280;8646;49.716;9.266;2023-07-29T15:24:27;99481.94;;;27.50;50.92
17060;BME280;8646;49.716;9.266;2023-07-29T15:27:33;99487.47;;;27.50;50.38
17060;BME280;8646;49.716;9.266;2023-07-29T15:30:36;99465.78;;;27.53;48.54
17060;BME280;8646;49.716;9.266;2023-07-29T15:33:42;99467.09;;;27.57;50.09
17060;BME280;8646;49.716;9.266;2023-07-29T15:36:45;99473.72;;;27.56;50.62
17060;BME280;8646;49.716;9.266;2023-07-29T15:39:48;99471.50;;;27.37;49.57
17060;BME280;8646;49.716;9.266;2023-07-29T15:42:52;99476.03;;;27.09;49.80
17060;BME280;8646;49.716;9.266;2023-07-29T15:45:55;99484.75;;;27.06;52.13
17060;BME280;8646;49.716;9.266;2023-07-29T15:48:59;99476.41;;;27.20;51.42
17060;BME280;8646;49.716;9.266;2023-07-29T15:52:01;99472.84;;;27.41;51.12
17060;BME280;8646;49.716;9.266;2023-07-29T15:55:05;99469.50;;;27.60;50.99
17060;BME280;8646;49.716;9.266;2023-07-29T15:58:09;99461.59;;;27.79;52.06
17060;BME280;8646;49.716;9.266;2023-07-29T16:01:12;99473.16;;;27.82;49.85
17060;BME280;8646;49.716;9.266;2023-07-29T16:04:15;99470.97;;;27.78;49.27
17060;BME280;8646;49.716;9.266;2023-07-29T16:07:18;99488.56;;;27.63;50.69
17060;BME280;8646;49.716;9.266;2023-07-29T16:10:21;99492.19;;;27.49;51.33
17060;BME280;8646;49.716;9.266;2023-07-29T16:13:25;99490.84;;;27.45;52.64
17060;BME280;8646;49.716;9.266;2023-07-29T16:16:28;99496.59;;;27.58;53.10
17060;BME280;8646;49.716;9.266;2023-07-29T16:19:31;99478.97;;;27.66;51.47
17060;BME280;8646;49.716;9.266;2023-07-29T16:22:34;99478.31;;;27.64;51.06
17060;BME280;8646;49.716;9.266;2023-07-29T16:25:37;99489.31;;;27.57;51.32
17060;BME280;8646;49.716;9.266;2023-07-29T16:28:41;99478.69;;;27.46;50.67
17060;BME280;8646;49.716;9.266;2023-07-29T16:31:44;99476.81;;;27.32;51.51
17060;BME280;8646;49.716;9.266;2023-07-29T16:34:47;99476.41;;;27.20;50.71